createdAt,value
2023-05-08T00:00:13.951Z,11.01
2023-05-08T00:02:41.078Z,10.91
2023-05-08T00:05:07.762Z,10.76
2023-05-08T00:07:34.324Z,10.72
2023-05-08T00:10:00.759Z,10.78
2023-05-08T00:12:27.199Z,10.67
2023-05-08T00:14:53.610Z,10.77
2023-05-08T00:17:20.057Z,10.74
2023-05-08T00:19:46.498Z,10.64
2023-05-08T00:22:12.993Z,10.71
2023-05-08T00:24:39.516Z,10.65
2023-05-08T00:27:06.249Z,10.60
2023-05-08T00:29:32.849Z,10.58
2023-05-08T00:31:59.389Z,10.55
2023-05-08T00:34:25.886Z,10.58
2023-05-08T00:36:52.303Z,10.57
2023-05-08T00:39:18.768Z,10.46
2023-05-08T00:41:45.192Z,10.46
2023-05-08T00:44:11.698Z,10.39
2023-05-08T00:46:38.172Z,10.29
2023-05-08T00:49:04.870Z,10.25
2023-05-08T00:51:31.331Z,10.26
2023-05-08T00:53:57.782Z,10.29
2023-05-08T00:56:24.170Z,10.07
2023-05-08T00:58:50.597Z,10.12
2023-05-08T01:01:17.010Z,10.10
2023-05-08T01:03:43.755Z,10.16
2023-05-08T01:06:10.563Z,9.95
2023-05-08T01:08:37.278Z,9.96
2023-05-08T01:11:06.849Z,9.91
2023-05-08T01:13:52.184Z,9.68
2023-05-08T01:16:23.586Z,9.66
2023-05-08T01:18:59.578Z,9.54
2023-05-08T01:21:43.061Z,9.44
2023-05-08T01:24:28.333Z,9.38
2023-05-08T01:26:59.529Z,9.40
2023-05-08T01:29:29.063Z,9.52
2023-05-08T01:32:13.609Z,9.48
2023-05-08T01:34:58.622Z,9.38
2023-05-08T01:37:27.785Z,9.38
2023-05-08T01:39:57.516Z,9.31
2023-05-08T01:42:39.350Z,9.34
2023-05-08T01:45:07.966Z,9.46
2023-05-08T01:47:36.153Z,9.44
2023-05-08T01:50:02.738Z,9.45
2023-05-08T01:52:33.355Z,9.38
2023-05-08T01:55:02.011Z,9.43
2023-05-08T01:57:28.653Z,9.32
2023-05-08T01:59:56.082Z,9.35
2023-05-08T02:02:22.709Z,9.31
2023-05-08T02:04:49.472Z,9.00
2023-05-08T02:07:16.201Z,9.04
2023-05-08T02:09:44.452Z,9.16
2023-05-08T02:12:11.532Z,9.14
2023-05-08T02:14:38.128Z,9.10
2023-05-08T02:17:04.672Z,9.08
2023-05-08T02:19:31.178Z,8.90
2023-05-08T02:21:57.897Z,8.78
2023-05-08T02:24:24.332Z,8.92
2023-05-08T02:26:50.951Z,8.78
2023-05-08T02:29:17.454Z,8.80
2023-05-08T02:31:44.181Z,8.78
2023-05-08T02:34:10.740Z,8.72
2023-05-08T02:36:37.389Z,8.65
2023-05-08T02:39:03.789Z,8.55
2023-05-08T02:41:30.760Z,8.60
2023-05-08T02:43:57.229Z,8.69
2023-05-08T02:46:34.683Z,8.86
2023-05-08T02:49:21.366Z,8.88
2023-05-08T02:51:55.120Z,8.88
2023-05-08T02:54:40.269Z,8.70
2023-05-08T02:57:09.254Z,8.56
2023-05-08T02:59:46.090Z,8.57
2023-05-08T03:02:14.278Z,8.45
2023-05-08T03:04:42.090Z,8.63
2023-05-08T03:07:08.657Z,8.75
2023-05-08T03:09:55.701Z,8.74
2023-05-08T03:12:22.385Z,8.82
2023-05-08T03:15:04.648Z,8.84
2023-05-08T03:17:31.392Z,8.58
2023-05-08T03:19:58.172Z,8.72
2023-05-08T03:22:24.615Z,8.65
2023-05-08T03:24:50.973Z,8.75
2023-05-08T03:27:17.779Z,8.73
2023-05-08T03:29:44.247Z,8.61
2023-05-08T03:32:10.982Z,8.60
2023-05-08T03:34:37.588Z,8.47
2023-05-08T03:37:04.030Z,8.49
2023-05-08T03:39:30.500Z,8.41
2023-05-08T03:41:57.250Z,8.44
2023-05-08T03:44:23.962Z,8.43
2023-05-08T03:46:50.781Z,8.54
2023-05-08T03:49:17.404Z,8.46
2023-05-08T03:51:43.808Z,8.36
2023-05-08T03:54:10.195Z,8.37
2023-05-08T03:56:36.662Z,8.36
2023-05-08T03:59:09.278Z,8.27
2023-05-08T04:01:39.045Z,8.21
2023-05-08T04:04:12.356Z,8.10
2023-05-08T04:06:57.827Z,8.29
2023-05-08T04:09:27.276Z,8.24
2023-05-08T04:12:00.745Z,8.26
2023-05-08T04:14:27.744Z,8.36
2023-05-08T04:16:56.214Z,8.37
2023-05-08T04:19:23.730Z,8.48
2023-05-08T04:21:50.303Z,8.34
2023-05-08T04:24:16.828Z,8.29
2023-05-08T04:26:43.329Z,8.26
2023-05-08T04:29:09.822Z,8.19
2023-05-08T04:31:36.266Z,8.00
2023-05-08T04:34:02.873Z,8.03
2023-05-08T04:36:30.716Z,8.14
2023-05-08T04:38:58.658Z,8.37
2023-05-08T04:41:25.713Z,8.27
2023-05-08T04:43:52.283Z,8.43
2023-05-08T04:46:18.791Z,8.46
2023-05-08T04:48:45.470Z,8.36
2023-05-08T04:51:11.988Z,8.56
2023-05-08T04:53:38.412Z,8.71
2023-05-08T04:56:05.170Z,8.85
2023-05-08T04:58:31.741Z,8.99
2023-05-08T05:01:01.689Z,9.03
2023-05-08T05:03:28.121Z,9.12
2023-05-08T05:06:00.729Z,9.15
2023-05-08T05:08:27.466Z,9.11
2023-05-08T05:10:53.915Z,9.29
2023-05-08T05:13:20.495Z,9.35
2023-05-08T05:15:47.273Z,9.21
2023-05-08T05:18:13.806Z,9.57
2023-05-08T05:20:40.294Z,9.54
2023-05-08T05:23:06.861Z,9.49
2023-05-08T05:25:33.285Z,9.70
2023-05-08T05:27:59.703Z,9.82
2023-05-08T05:30:26.661Z,9.68
2023-05-08T05:32:53.217Z,10.04
2023-05-08T05:35:19.922Z,10.03
2023-05-08T05:37:46.776Z,10.02
2023-05-08T05:40:13.248Z,10.08
2023-05-08T05:42:39.694Z,10.27
2023-05-08T05:45:06.417Z,10.05
2023-05-08T05:47:32.984Z,10.26
2023-05-08T05:49:59.492Z,10.51
2023-05-08T05:52:25.958Z,10.60
2023-05-08T05:54:52.344Z,10.67
2023-05-08T05:57:19.519Z,10.82
2023-05-08T05:59:46.066Z,10.51
2023-05-08T06:02:12.569Z,10.45
2023-05-08T06:04:39.021Z,10.45
2023-05-08T06:07:05.554Z,10.48
2023-05-08T06:09:31.939Z,10.66
2023-05-08T06:11:58.323Z,10.74
2023-05-08T06:14:24.970Z,10.69
2023-05-08T06:16:51.361Z,10.88
2023-05-08T06:19:17.771Z,10.82
2023-05-08T06:21:44.355Z,11.12
2023-05-08T06:24:10.825Z,11.10
2023-05-08T06:26:37.218Z,11.06
2023-05-08T06:29:04.048Z,10.88
2023-05-08T06:31:30.604Z,10.94
2023-05-08T06:33:57.289Z,11.10
2023-05-08T06:36:24.114Z,11.29
2023-05-08T06:38:50.594Z,11.45
2023-05-08T06:41:17.057Z,11.70
2023-05-08T06:43:43.578Z,11.78
2023-05-08T06:46:09.976Z,11.85
2023-05-08T06:48:36.483Z,11.65
2023-05-08T06:51:03.005Z,11.88
2023-05-08T06:53:29.511Z,11.79
2023-05-08T06:55:56.033Z,11.72
2023-05-08T06:58:22.528Z,11.97
2023-05-08T07:00:48.924Z,12.33
2023-05-08T07:03:15.559Z,12.50
2023-05-08T07:05:42.207Z,12.38
2023-05-08T07:08:08.567Z,12.11
2023-05-08T07:10:35.021Z,12.32
2023-05-08T07:13:01.666Z,12.22
2023-05-08T07:15:28.392Z,11.22
2023-05-08T07:17:55.112Z,12.24
2023-05-08T07:20:21.798Z,13.03
2023-05-08T07:22:48.504Z,13.75
2023-05-08T07:25:15.078Z,13.59
2023-05-08T07:27:41.868Z,13.83
2023-05-08T07:30:08.370Z,14.07
2023-05-08T07:32:34.772Z,14.79
2023-05-08T07:35:02.291Z,14.97
2023-05-08T07:37:28.661Z,15.13
2023-05-08T07:39:55.169Z,14.63
2023-05-08T07:42:21.693Z,14.34
2023-05-08T07:44:54.257Z,14.45
2023-05-08T07:47:21.623Z,14.96
2023-05-08T07:49:48.087Z,14.92
2023-05-08T07:52:14.523Z,14.22
2023-05-08T07:54:41.137Z,14.42
2023-05-08T07:57:07.649Z,14.59
2023-05-08T07:59:34.071Z,15.88
2023-05-08T08:02:00.563Z,16.67
2023-05-08T08:04:27.121Z,15.86
2023-05-08T08:06:53.709Z,16.77
2023-05-08T08:09:20.243Z,15.11
2023-05-08T08:11:46.627Z,16.93
2023-05-08T08:14:13.301Z,17.18
2023-05-08T08:16:39.757Z,16.95
2023-05-08T08:19:06.195Z,17.32
2023-05-08T08:21:32.609Z,17.15
2023-05-08T08:23:59.136Z,16.71
2023-05-08T08:26:25.559Z,17.08
2023-05-08T08:28:52.005Z,17.23
2023-05-08T08:31:18.569Z,17.75
2023-05-08T08:33:45.426Z,18.57
2023-05-08T08:36:14.404Z,19.08
2023-05-08T08:38:40.946Z,17.13
2023-05-08T08:41:07.423Z,18.02
2023-05-08T08:43:34.111Z,17.69
2023-05-08T08:46:04.203Z,17.55
2023-05-08T08:48:30.726Z,17.48
2023-05-08T08:50:58.928Z,18.95
2023-05-08T08:53:30.091Z,19.27
2023-05-08T08:55:56.600Z,18.87
2023-05-08T08:58:33.942Z,19.56
2023-05-08T09:01:00.949Z,19.89
2023-05-08T09:03:27.511Z,19.35
2023-05-08T09:05:54.124Z,19.69
2023-05-08T09:08:20.737Z,19.73
2023-05-08T09:10:47.226Z,19.69
2023-05-08T09:13:13.900Z,19.33
2023-05-08T09:15:40.387Z,19.87
2023-05-08T09:18:06.886Z,19.58
2023-05-08T09:20:33.421Z,17.44
2023-05-08T09:23:00.769Z,18.02
2023-05-08T09:25:27.255Z,17.19
2023-05-08T09:27:53.733Z,18.28
2023-05-08T09:30:20.145Z,18.75
2023-05-08T09:32:46.642Z,19.28
2023-05-08T09:35:13.730Z,19.31
2023-05-08T09:37:41.205Z,19.48
2023-05-08T09:40:14.330Z,19.56
2023-05-08T09:42:40.816Z,19.42
2023-05-08T09:45:07.475Z,18.34
2023-05-08T09:47:34.138Z,18.42
2023-05-08T09:50:04.668Z,19.45
2023-05-08T09:52:31.577Z,18.95
2023-05-08T09:55:01.785Z,18.82
2023-05-08T09:57:28.436Z,19.37
2023-05-08T10:00:01.724Z,19.13
2023-05-08T10:02:28.442Z,19.57
2023-05-08T10:04:55.144Z,19.50
2023-05-08T10:07:28.642Z,19.69
2023-05-08T10:10:01.761Z,19.23
2023-05-08T10:12:28.452Z,18.61
2023-05-08T10:14:55.258Z,19.38
2023-05-08T10:17:48.312Z,20.18
2023-05-08T10:20:15.192Z,19.35
2023-05-08T10:22:42.276Z,20.04
2023-05-08T10:25:11.263Z,20.08
2023-05-08T10:27:41.681Z,18.85
2023-05-08T10:30:08.359Z,18.81
2023-05-08T10:32:38.322Z,19.55
2023-05-08T10:35:05.027Z,18.95
2023-05-08T10:37:31.589Z,19.51
2023-05-08T10:39:58.158Z,18.91
2023-05-08T10:42:24.634Z,19.09
2023-05-08T10:44:51.028Z,19.53
2023-05-08T10:47:19.623Z,19.12
2023-05-08T10:49:57.074Z,19.25
2023-05-08T10:52:23.605Z,18.30
2023-05-08T10:54:59.010Z,19.32
2023-05-08T10:57:25.537Z,19.78
2023-05-08T10:59:52.042Z,19.24
2023-05-08T11:02:20.890Z,19.50
2023-05-08T11:04:47.477Z,19.99
2023-05-08T11:07:14.088Z,19.54
2023-05-08T11:09:40.567Z,19.08
2023-05-08T11:12:25.940Z,18.62
2023-05-08T11:14:53.846Z,18.86
2023-05-08T11:17:24.010Z,19.18
2023-05-08T11:19:54.796Z,18.90
2023-05-08T11:22:22.437Z,18.68
2023-05-08T11:24:55.911Z,18.50
2023-05-08T11:27:31.621Z,18.86
2023-05-08T11:30:16.981Z,19.14
2023-05-08T11:33:15.846Z,18.51
2023-05-08T11:35:42.381Z,18.97
2023-05-08T11:38:14.194Z,18.38
2023-05-08T11:40:47.625Z,17.59
2023-05-08T11:43:24.468Z,17.97
2023-05-08T11:45:51.160Z,17.65
2023-05-08T11:48:17.602Z,17.58
2023-05-08T11:50:43.978Z,17.51
2023-05-08T11:53:10.533Z,17.40
2023-05-08T11:55:36.923Z,17.89
2023-05-08T11:58:11.305Z,17.95
2023-05-08T12:00:47.013Z,18.51
2023-05-08T12:03:17.326Z,18.27
2023-05-08T12:05:44.163Z,18.16
2023-05-08T12:08:10.801Z,18.30
2023-05-08T12:10:46.959Z,18.44
2023-05-08T12:13:23.374Z,18.48
2023-05-08T12:15:50.641Z,18.05
2023-05-08T12:18:17.230Z,18.14
2023-05-08T12:20:43.852Z,18.03
2023-05-08T12:23:10.474Z,18.41
2023-05-08T12:25:37.556Z,18.06
2023-05-08T12:28:04.006Z,17.87
2023-05-08T12:30:30.484Z,17.64
2023-05-08T12:32:57.075Z,17.77
2023-05-08T12:35:23.607Z,18.12
2023-05-08T12:37:50.712Z,18.47
2023-05-08T12:40:33.279Z,19.01
2023-05-08T12:43:03.127Z,18.41
2023-05-08T12:45:30.265Z,18.57
2023-05-08T12:48:03.365Z,18.47
2023-05-08T12:50:30.026Z,18.53
2023-05-08T12:53:01.555Z,18.49
2023-05-08T12:55:28.843Z,18.34
2023-05-08T12:58:14.717Z,18.17
2023-05-08T13:00:42.965Z,18.09
2023-05-08T13:03:09.665Z,18.03
2023-05-08T13:05:36.749Z,17.83
2023-05-08T13:08:03.949Z,18.17
2023-05-08T13:11:03.017Z,18.38
2023-05-08T13:13:31.192Z,17.96
2023-05-08T13:15:57.815Z,17.69
2023-05-08T13:18:25.054Z,17.25
2023-05-08T13:20:51.552Z,17.58
2023-05-08T13:23:18.028Z,17.40
2023-05-08T13:25:44.508Z,17.83
2023-05-08T13:28:11.054Z,17.90
2023-05-08T13:30:37.622Z,18.10
2023-05-08T13:33:04.353Z,17.80
2023-05-08T13:35:31.213Z,17.74
2023-05-08T13:37:57.871Z,17.57
2023-05-08T13:40:24.350Z,16.97
2023-05-08T13:42:51.017Z,16.84
2023-05-08T13:45:17.561Z,16.94
2023-05-08T13:47:44.211Z,16.94
2023-05-08T13:50:10.962Z,16.55
2023-05-08T13:52:37.682Z,16.86
2023-05-08T13:55:07.320Z,16.79
2023-05-08T13:57:33.841Z,16.74
2023-05-08T14:00:00.244Z,17.04
2023-05-08T14:02:27.134Z,17.17
2023-05-08T14:04:53.861Z,17.03
2023-05-08T14:07:20.360Z,17.10
2023-05-08T14:09:46.811Z,16.84
2023-05-08T14:12:13.262Z,16.99
2023-05-08T14:14:39.770Z,16.77
2023-05-08T14:17:06.340Z,16.45
2023-05-08T14:19:32.894Z,16.60
2023-05-08T14:21:59.281Z,16.83
2023-05-08T14:24:25.727Z,16.96
2023-05-08T14:26:52.175Z,17.13
2023-05-08T14:29:19.013Z,17.27
2023-05-08T14:31:45.532Z,17.28
2023-05-08T14:34:12.067Z,16.93
2023-05-08T14:36:38.491Z,17.18
2023-05-08T14:39:04.918Z,17.07
2023-05-08T14:41:31.398Z,16.98
2023-05-08T14:43:57.807Z,17.04
2023-05-08T14:46:24.357Z,17.06
2023-05-08T14:48:51.256Z,16.96
2023-05-08T14:51:17.718Z,16.97
2023-05-08T14:53:44.333Z,16.82
2023-05-08T14:56:11.402Z,16.96
2023-05-08T14:58:37.954Z,16.88
2023-05-08T15:01:04.435Z,17.06
2023-05-08T15:03:31.008Z,16.85
2023-05-08T15:05:57.640Z,16.89
2023-05-08T15:08:24.130Z,16.69
2023-05-08T15:10:50.567Z,16.62
2023-05-08T15:13:17.024Z,16.85
2023-05-08T15:15:43.779Z,16.85
2023-05-08T15:18:10.345Z,16.44
2023-05-08T15:20:36.827Z,16.45
2023-05-08T15:23:03.252Z,16.21
2023-05-08T15:25:29.833Z,16.50
2023-05-08T15:27:56.777Z,16.30
2023-05-08T15:30:24.417Z,16.19
2023-05-08T15:32:51.228Z,16.47
2023-05-08T15:35:17.768Z,16.71
2023-05-08T15:37:44.156Z,16.49
2023-05-08T15:40:11.079Z,16.23
2023-05-08T15:42:37.611Z,16.29
2023-05-08T15:45:04.073Z,16.36
2023-05-08T15:47:30.564Z,16.44
2023-05-08T15:49:57.023Z,16.14
2023-05-08T15:52:23.508Z,16.22
2023-05-08T15:54:50.055Z,16.36
2023-05-08T15:57:16.578Z,16.26
2023-05-08T15:59:43.081Z,16.22
2023-05-08T16:02:09.598Z,15.89
2023-05-08T16:04:36.131Z,15.70
2023-05-08T16:07:02.504Z,15.93
2023-05-08T16:09:28.925Z,16.04
2023-05-08T16:11:55.351Z,15.76
2023-05-08T16:14:21.851Z,15.87
2023-05-08T16:16:48.411Z,15.78
2023-05-08T16:19:14.877Z,15.66
2023-05-08T16:21:41.316Z,15.62
2023-05-08T16:24:08.015Z,15.56
2023-05-08T16:26:34.495Z,15.59
2023-05-08T16:29:00.950Z,15.45
2023-05-08T16:31:27.531Z,15.38
2023-05-08T16:33:53.908Z,15.46
2023-05-08T16:36:20.354Z,15.31
2023-05-08T16:38:46.886Z,15.36
2023-05-08T16:41:13.317Z,15.26
2023-05-08T16:43:39.717Z,15.16
2023-05-08T16:46:06.302Z,15.07
2023-05-08T16:48:32.739Z,15.12
2023-05-08T16:50:59.130Z,14.96
2023-05-08T16:53:25.548Z,14.84
2023-05-08T16:55:51.978Z,14.73
2023-05-08T16:58:18.414Z,14.70
2023-05-08T17:00:44.928Z,14.78
2023-05-08T17:03:11.572Z,14.63
2023-05-08T17:05:38.161Z,14.58
2023-05-08T17:08:04.789Z,14.67
2023-05-08T17:10:31.273Z,14.45
2023-05-08T17:12:58.150Z,14.44
2023-05-08T17:15:24.683Z,14.45
2023-05-08T17:17:51.110Z,14.50
2023-05-08T17:20:17.587Z,14.52
2023-05-08T17:22:44.022Z,14.36
2023-05-08T17:25:10.494Z,14.26
2023-05-08T17:27:36.896Z,14.41
2023-05-08T17:30:03.591Z,14.17
2023-05-08T17:32:30.002Z,14.21
2023-05-08T17:34:56.493Z,14.32
2023-05-08T17:37:23.014Z,14.05
2023-05-08T17:39:49.470Z,14.09
2023-05-08T17:42:15.954Z,14.08
2023-05-08T17:44:42.474Z,14.07
2023-05-08T17:47:08.903Z,14.09
2023-05-08T17:49:35.309Z,14.05
2023-05-08T17:52:01.760Z,14.07
2023-05-08T17:54:28.194Z,14.11
2023-05-08T17:56:54.867Z,14.04
2023-05-08T17:59:21.374Z,13.95
2023-05-08T18:01:47.839Z,13.87
2023-05-08T18:04:14.452Z,13.81
2023-05-08T18:06:40.918Z,13.94
2023-05-08T18:09:07.377Z,13.76
2023-05-08T18:11:33.818Z,13.75
2023-05-08T18:14:00.293Z,13.81
2023-05-08T18:16:26.744Z,13.77
2023-05-08T18:18:53.300Z,13.64
2023-05-08T18:21:19.714Z,13.72
2023-05-08T18:23:46.143Z,13.75
2023-05-08T18:26:13.050Z,13.49
2023-05-08T18:28:39.652Z,13.43
2023-05-08T18:31:06.076Z,13.34
2023-05-08T18:33:32.544Z,13.21
2023-05-08T18:35:59.057Z,13.12
2023-05-08T18:38:25.415Z,13.15
2023-05-08T18:40:51.835Z,13.12
2023-05-08T18:43:18.270Z,12.88
2023-05-08T18:45:44.785Z,12.95
2023-05-08T18:48:11.305Z,12.70
2023-05-08T18:50:37.861Z,12.69
2023-05-08T18:53:04.347Z,12.45
2023-05-08T18:55:30.727Z,12.31
2023-05-08T18:57:57.235Z,12.31
2023-05-08T19:00:23.671Z,12.45
2023-05-08T19:02:50.213Z,12.65
2023-05-08T19:05:16.881Z,12.55
2023-05-08T19:07:43.730Z,12.51
2023-05-08T19:10:10.401Z,12.50
2023-05-08T19:12:36.946Z,12.28
2023-05-08T19:15:03.381Z,12.02
2023-05-08T19:17:29.871Z,12.00
2023-05-08T19:19:56.413Z,12.08
2023-05-08T19:22:22.874Z,12.17
2023-05-08T19:24:49.357Z,12.11
2023-05-08T19:27:15.805Z,12.11
2023-05-08T19:29:42.196Z,12.09
2023-05-08T19:32:08.602Z,12.02
2023-05-08T19:34:35.294Z,12.02
2023-05-08T19:37:01.803Z,11.97
2023-05-08T19:39:28.313Z,12.01
2023-05-08T19:41:54.765Z,11.98
2023-05-08T19:44:21.200Z,11.91
2023-05-08T19:46:47.636Z,11.86
2023-05-08T19:49:14.142Z,11.62
2023-05-08T19:51:40.656Z,11.51
2023-05-08T19:54:07.150Z,11.26
2023-05-08T19:56:33.621Z,11.38
2023-05-08T19:58:59.981Z,11.35
2023-05-08T20:01:26.400Z,11.33
2023-05-08T20:03:53.180Z,11.19
2023-05-08T20:06:19.752Z,11.00
2023-05-08T20:08:46.188Z,10.65
2023-05-08T20:11:12.682Z,10.74
2023-05-08T20:13:39.218Z,10.78
2023-05-08T20:16:05.814Z,10.74
2023-05-08T20:18:33.468Z,10.71
2023-05-08T20:20:59.941Z,10.79
2023-05-08T20:23:26.407Z,10.81
2023-05-08T20:25:52.876Z,10.57
2023-05-08T20:28:19.276Z,10.41
2023-05-08T20:30:46.295Z,10.46
2023-05-08T20:33:12.895Z,10.48
2023-05-08T20:35:39.416Z,10.25
2023-05-08T20:38:05.824Z,10.10
2023-05-08T20:40:32.348Z,10.26
2023-05-08T20:42:58.840Z,10.24
2023-05-08T20:45:25.355Z,10.19
2023-05-08T20:47:51.881Z,10.10
2023-05-08T20:50:18.444Z,10.13
2023-05-08T20:52:44.928Z,10.18
2023-05-08T20:55:11.510Z,10.05
2023-05-08T20:57:38.108Z,10.02
2023-05-08T21:00:05.025Z,10.07
2023-05-08T21:02:31.651Z,10.08
2023-05-08T21:04:58.169Z,10.01
2023-05-08T21:07:24.718Z,9.98
2023-05-08T21:09:51.555Z,9.86
2023-05-08T21:12:18.014Z,9.81
2023-05-08T21:14:44.440Z,9.78
2023-05-08T21:17:10.916Z,9.73
2023-05-08T21:19:37.304Z,9.72
2023-05-08T21:22:03.749Z,9.65
2023-05-08T21:24:30.293Z,9.68
2023-05-08T21:26:56.821Z,9.61
2023-05-08T21:29:23.276Z,9.52
2023-05-08T21:31:49.791Z,9.44
2023-05-08T21:34:16.259Z,9.42
2023-05-08T21:36:42.819Z,9.38
2023-05-08T21:39:09.346Z,9.36
2023-05-08T21:41:35.829Z,9.25
2023-05-08T21:44:02.292Z,9.23
2023-05-08T21:46:28.920Z,9.25
2023-05-08T21:48:55.452Z,9.21
2023-05-08T21:51:21.923Z,9.22
2023-05-08T21:53:48.363Z,9.18
2023-05-08T21:56:14.738Z,9.14
2023-05-08T21:58:41.118Z,9.19
2023-05-08T22:01:07.592Z,9.09
2023-05-08T22:03:34.130Z,9.04
2023-05-08T22:06:00.626Z,9.10
2023-05-08T22:08:27.135Z,9.07
2023-05-08T22:10:53.523Z,9.08
2023-05-08T22:13:20.026Z,8.94
2023-05-08T22:15:46.685Z,8.97
2023-05-08T22:18:13.092Z,8.92
2023-05-08T22:20:39.575Z,8.96
2023-05-08T22:23:06.287Z,8.99
2023-05-08T22:25:32.806Z,9.00
2023-05-08T22:27:59.191Z,8.97
2023-05-08T22:30:25.718Z,8.97
2023-05-08T22:32:53.151Z,8.99
2023-05-08T22:35:19.847Z,9.01
2023-05-08T22:37:46.309Z,9.04
2023-05-08T22:40:12.998Z,9.01
2023-05-08T22:42:39.524Z,9.02
2023-05-08T22:45:06.221Z,9.03
2023-05-08T22:47:33.251Z,8.96
2023-05-08T22:49:59.699Z,9.06
2023-05-08T22:52:26.238Z,8.96
2023-05-08T22:54:52.734Z,9.02
2023-05-08T22:57:19.260Z,8.96
2023-05-08T22:59:45.776Z,9.05
2023-05-08T23:02:12.227Z,9.05
2023-05-08T23:04:38.712Z,9.07
2023-05-08T23:07:05.248Z,9.05
2023-05-08T23:09:31.768Z,9.06
2023-05-08T23:11:58.217Z,8.97
2023-05-08T23:14:24.668Z,8.87
2023-05-08T23:16:51.204Z,8.95
2023-05-08T23:19:17.734Z,9.07
2023-05-08T23:21:44.265Z,9.11
2023-05-08T23:24:10.769Z,9.14
2023-05-08T23:26:37.259Z,9.14
2023-05-08T23:29:03.739Z,9.01
2023-05-08T23:31:30.201Z,8.93
2023-05-08T23:33:56.626Z,8.95
2023-05-08T23:36:23.181Z,9.06
2023-05-08T23:38:49.600Z,9.07
2023-05-08T23:41:16.274Z,9.14
2023-05-08T23:43:42.688Z,8.95
2023-05-08T23:46:09.119Z,9.04
2023-05-08T23:48:35.570Z,9.02
2023-05-08T23:51:02.087Z,9.06
2023-05-08T23:53:28.861Z,9.11
2023-05-08T23:55:55.338Z,9.12
2023-05-08T23:58:21.851Z,9.15
